sensor_id;sensor_type;location;lat;lon;timestamp;temperature;humidity
35541;DHT22;21650;48.840;9.162;2022-11-09T00:01:30;10.10;99.90
35541;DHT22;21650;48.840;9.162;2022-11-09T00:03:57;10.00;99.90
35541;DHT22;21650;48.840;9.162;2022-11-09T00:06:24;10.10;99.90
35541;DHT22;21650;48.840;9.162;2022-11-09T00:08:50;10.10;99.90
35541;DHT22;21650;48.840;9.162;2022-11-09T00:11:16;10.10;99.90
35541;DHT22;21650;48.840;9.162;2022-11-09T00:13:43;10.10;99.90
35541;DHT22;21650;48.840;9.162;2022-11-09T00:16:11;10.10;99.90
35541;DHT22;21650;48.840;9.162;2022-11-09T00:18:38;10.00;99.90
35541;DHT22;21650;48.840;9.162;2022-11-09T00:21:11;10.00;99.90
35541;DHT22;21650;48.840;9.162;2022-11-09T00:23:37;10.00;99.90
35541;DHT22;21650;48.840;9.162;2022-11-09T00:26:05;10.00;99.90
35541;DHT22;21650;48.840;9.162;2022-11-09T00:28:31;10.00;99.90
35541;DHT22;21650;48.840;9.162;2022-11-09T00:31:01;10.00;99.90
35541;DHT22;21650;48.840;9.162;2022-11-09T00:33:27;10.00;99.90
35541;DHT22;21650;48.840;9.162;2022-11-09T00:35:53;10.00;99.90
35541;DHT22;21650;48.840;9.162;2022-11-09T00:38:19;10.00;99.90
35541;DHT22;21650;48.840;9.162;2022-11-09T00:40:44;10.10;99.90
35541;DHT22;21650;48.840;9.162;2022-11-09T00:43:10;10.10;99.90
35541;DHT22;21650;48.840;9.162;2022-11-09T00:45:36;10.00;99.90
35541;DHT22;21650;48.840;9.162;2022-11-09T00:48:02;10.10;99.90
35541;DHT22;21650;48.840;9.162;2022-11-09T00:50:28;10.10;99.90
35541;DHT22;21650;48.840;9.162;2022-11-09T00:52:54;10.00;99.90
35541;DHT22;21650;48.840;9.162;2022-11-09T00:55:19;10.00;99.90
35541;DHT22;21650;48.840;9.162;2022-11-09T00:57:54;10.10;99.90
35541;DHT22;21650;48.840;9.162;2022-11-09T01:00:21;10.00;99.90
35541;DHT22;21650;48.840;9.162;2022-11-09T01:02:49;10.00;99.90
35541;DHT22;21650;48.840;9.162;2022-11-09T01:05:15;10.00;99.90
35541;DHT22;21650;48.840;9.162;2022-11-09T01:07:41;10.00;99.90
35541;DHT22;21650;48.840;9.162;2022-11-09T01:10:07;10.00;99.90
35541;DHT22;21650;48.840;9.162;2022-11-09T01:12:33;10.10;99.90
35541;DHT22;21650;48.840;9.162;2022-11-09T01:14:59;10.00;99.90
35541;DHT22;21650;48.840;9.162;2022-11-09T01:17:25;10.00;99.90
35541;DHT22;21650;48.840;9.162;2022-11-09T01:19:50;10.00;99.90
35541;DHT22;21650;48.840;9.162;2022-11-09T01:22:16;10.10;99.90
35541;DHT22;21650;48.840;9.162;2022-11-09T01:24:43;10.10;99.90
35541;DHT22;21650;48.840;9.162;2022-11-09T01:27:09;10.10;99.90
35541;DHT22;21650;48.840;9.162;2022-11-09T01:29:34;10.20;99.90
35541;DHT22;21650;48.840;9.162;2022-11-09T01:32:00;10.30;99.90
35541;DHT22;21650;48.840;9.162;2022-11-09T01:34:27;10.30;99.90
35541;DHT22;21650;48.840;9.162;2022-11-09T01:36:52;10.50;99.90
35541;DHT22;21650;48.840;9.162;2022-11-09T01:39:19;10.70;99.90
35541;DHT22;21650;48.840;9.162;2022-11-09T01:41:46;10.80;99.90
35541;DHT22;21650;48.840;9.162;2022-11-09T01:44:19;10.90;99.90
35541;DHT22;21650;48.840;9.162;2022-11-09T01:46:54;11.00;99.90
35541;DHT22;21650;48.840;9.162;2022-11-09T01:52:18;11.30;99.90
35541;DHT22;21650;48.840;9.162;2022-11-09T01:54:47;11.30;99.90
35541;DHT22;21650;48.840;9.162;2022-11-09T01:57:27;11.30;99.90
35541;DHT22;21650;48.840;9.162;2022-11-09T02:00:02;11.20;99.90
35541;DHT22;21650;48.840;9.162;2022-11-09T02:02:28;11.10;99.90
35541;DHT22;21650;48.840;9.162;2022-11-09T02:05:00;11.10;99.90
35541;DHT22;21650;48.840;9.162;2022-11-09T02:07:27;11.10;99.90
35541;DHT22;21650;48.840;9.162;2022-11-09T02:10:13;11.00;99.90
35541;DHT22;21650;48.840;9.162;2022-11-09T02:12:40;10.90;99.90
35541;DHT22;21650;48.840;9.162;2022-11-09T02:15:08;10.90;99.90
35541;DHT22;21650;48.840;9.162;2022-11-09T02:17:35;11.00;99.90
35541;DHT22;21650;48.840;9.162;2022-11-09T02:20:05;11.70;99.90
35541;DHT22;21650;48.840;9.162;2022-11-09T02:22:31;12.40;99.90
35541;DHT22;21650;48.840;9.162;2022-11-09T02:24:58;12.40;99.90
35541;DHT22;21650;48.840;9.162;2022-11-09T02:27:24;12.50;99.90
35541;DHT22;21650;48.840;9.162;2022-11-09T02:29:51;12.50;99.90
35541;DHT22;21650;48.840;9.162;2022-11-09T02:32:22;12.50;99.90
35541;DHT22;21650;48.840;9.162;2022-11-09T02:34:48;12.40;99.90
35541;DHT22;21650;48.840;9.162;2022-11-09T02:37:26;12.30;99.90
35541;DHT22;21650;48.840;9.162;2022-11-09T02:39:52;12.30;99.90
35541;DHT22;21650;48.840;9.162;2022-11-09T02:42:18;12.40;99.90
35541;DHT22;21650;48.840;9.162;2022-11-09T02:44:48;12.40;99.90
35541;DHT22;21650;48.840;9.162;2022-11-09T02:47:15;12.40;99.90
35541;DHT22;21650;48.840;9.162;2022-11-09T02:49:40;12.40;99.90
35541;DHT22;21650;48.840;9.162;2022-11-09T02:52:06;12.40;99.90
35541;DHT22;21650;48.840;9.162;2022-11-09T02:54:32;12.40;99.90
35541;DHT22;21650;48.840;9.162;2022-11-09T02:56:58;12.40;99.90
35541;DHT22;21650;48.840;9.162;2022-11-09T02:59:23;12.40;99.90
35541;DHT22;21650;48.840;9.162;2022-11-09T03:01:49;12.30;99.90
35541;DHT22;21650;48.840;9.162;2022-11-09T03:04:14;12.30;99.90
35541;DHT22;21650;48.840;9.162;2022-11-09T03:06:40;12.30;99.90
35541;DHT22;21650;48.840;9.162;2022-11-09T03:09:08;12.20;99.90
35541;DHT22;21650;48.840;9.162;2022-11-09T03:11:38;12.20;99.90
35541;DHT22;21650;48.840;9.162;2022-11-09T03:14:04;12.30;99.90
35541;DHT22;21650;48.840;9.162;2022-11-09T03:16:29;12.30;99.90
35541;DHT22;21650;48.840;9.162;2022-11-09T03:18:55;12.10;99.90
35541;DHT22;21650;48.840;9.162;2022-11-09T03:21:22;12.00;99.90
35541;DHT22;21650;48.840;9.162;2022-11-09T03:23:48;12.00;99.90
35541;DHT22;21650;48.840;9.162;2022-11-09T03:26:15;11.90;99.90
35541;DHT22;21650;48.840;9.162;2022-11-09T03:28:40;11.70;99.90
35541;DHT22;21650;48.840;9.162;2022-11-09T03:31:07;11.70;99.90
35541;DHT22;21650;48.840;9.162;2022-11-09T03:33:33;11.60;99.90
35541;DHT22;21650;48.840;9.162;2022-11-09T03:35:59;11.50;99.90
35541;DHT22;21650;48.840;9.162;2022-11-09T03:38:25;11.50;99.90
35541;DHT22;21650;48.840;9.162;2022-11-09T03:40:50;11.30;99.90
35541;DHT22;21650;48.840;9.162;2022-11-09T03:43:16;11.20;99.90
35541;DHT22;21650;48.840;9.162;2022-11-09T03:45:42;11.20;99.90
35541;DHT22;21650;48.840;9.162;2022-11-09T03:48:07;11.20;99.90
35541;DHT22;21650;48.840;9.162;2022-11-09T03:50:34;11.20;99.90
35541;DHT22;21650;48.840;9.162;2022-11-09T03:53:01;11.10;99.90
35541;DHT22;21650;48.840;9.162;2022-11-09T03:55:27;11.10;99.90
35541;DHT22;21650;48.840;9.162;2022-11-09T03:57:53;11.00;99.90
35541;DHT22;21650;48.840;9.162;2022-11-09T04:00:20;11.00;99.90
35541;DHT22;21650;48.840;9.162;2022-11-09T04:02:47;10.90;99.90
35541;DHT22;21650;48.840;9.162;2022-11-09T04:05:13;10.90;99.90
35541;DHT22;21650;48.840;9.162;2022-11-09T04:07:40;10.90;99.90
35541;DHT22;21650;48.840;9.162;2022-11-09T04:10:10;10.90;99.90
35541;DHT22;21650;48.840;9.162;2022-11-09T04:12:36;10.90;99.90
35541;DHT22;21650;48.840;9.162;2022-11-09T04:15:01;10.80;99.90
35541;DHT22;21650;48.840;9.162;2022-11-09T04:17:27;10.80;99.90
35541;DHT22;21650;48.840;9.162;2022-11-09T04:19:52;10.80;99.90
35541;DHT22;21650;48.840;9.162;2022-11-09T04:22:18;10.70;99.90
35541;DHT22;21650;48.840;9.162;2022-11-09T04:24:43;10.80;99.90
35541;DHT22;21650;48.840;9.162;2022-11-09T04:27:09;10.70;99.90
35541;DHT22;21650;48.840;9.162;2022-11-09T04:29:34;10.70;99.90
35541;DHT22;21650;48.840;9.162;2022-11-09T04:32:00;10.70;99.90
35541;DHT22;21650;48.840;9.162;2022-11-09T04:34:26;10.60;99.90
35541;DHT22;21650;48.840;9.162;2022-11-09T04:36:51;10.70;99.90
35541;DHT22;21650;48.840;9.162;2022-11-09T04:39:17;10.70;99.90
35541;DHT22;21650;48.840;9.162;2022-11-09T04:41:42;10.60;99.90
35541;DHT22;21650;48.840;9.162;2022-11-09T04:44:08;10.50;99.90
35541;DHT22;21650;48.840;9.162;2022-11-09T04:46:33;10.50;99.90
35541;DHT22;21650;48.840;9.162;2022-11-09T04:48:59;10.50;99.90
35541;DHT22;21650;48.840;9.162;2022-11-09T04:51:25;10.50;99.90
35541;DHT22;21650;48.840;9.162;2022-11-09T04:53:51;10.50;99.90
35541;DHT22;21650;48.840;9.162;2022-11-09T04:56:16;10.50;99.90
35541;DHT22;21650;48.840;9.162;2022-11-09T04:58:42;10.50;99.90
35541;DHT22;21650;48.840;9.162;2022-11-09T05:01:12;10.50;99.90
35541;DHT22;21650;48.840;9.162;2022-11-09T05:03:38;10.50;99.90
35541;DHT22;21650;48.840;9.162;2022-11-09T05:06:04;10.50;99.90
35541;DHT22;21650;48.840;9.162;2022-11-09T05:08:51;10.50;99.90
35541;DHT22;21650;48.840;9.162;2022-11-09T05:11:17;10.50;99.90
35541;DHT22;21650;48.840;9.162;2022-11-09T05:13:42;10.50;99.90
35541;DHT22;21650;48.840;9.162;2022-11-09T05:16:08;10.50;99.90
35541;DHT22;21650;48.840;9.162;2022-11-09T05:18:33;10.50;99.90
35541;DHT22;21650;48.840;9.162;2022-11-09T05:21:00;10.50;99.90
35541;DHT22;21650;48.840;9.162;2022-11-09T05:23:25;10.50;99.90
35541;DHT22;21650;48.840;9.162;2022-11-09T05:26:09;10.50;99.90
35541;DHT22;21650;48.840;9.162;2022-11-09T05:28:35;10.40;99.90
35541;DHT22;21650;48.840;9.162;2022-11-09T05:31:01;10.40;99.90
35541;DHT22;21650;48.840;9.162;2022-11-09T05:33:26;10.40;99.90
35541;DHT22;21650;48.840;9.162;2022-11-09T05:35:56;10.40;99.90
35541;DHT22;21650;48.840;9.162;2022-11-09T05:38:22;10.40;99.90
35541;DHT22;21650;48.840;9.162;2022-11-09T05:40:49;10.30;99.90
35541;DHT22;21650;48.840;9.162;2022-11-09T05:43:15;10.30;99.90
35541;DHT22;21650;48.840;9.162;2022-11-09T05:45:41;10.40;99.90
35541;DHT22;21650;48.840;9.162;2022-11-09T05:48:07;10.30;99.90
35541;DHT22;21650;48.840;9.162;2022-11-09T05:50:33;10.40;99.90
35541;DHT22;21650;48.840;9.162;2022-11-09T05:53:00;10.40;99.90
35541;DHT22;21650;48.840;9.162;2022-11-09T05:55:26;10.40;99.90
35541;DHT22;21650;48.840;9.162;2022-11-09T05:57:52;10.40;99.90
35541;DHT22;21650;48.840;9.162;2022-11-09T06:00:18;10.30;99.90
35541;DHT22;21650;48.840;9.162;2022-11-09T06:02:43;10.40;99.90
35541;DHT22;21650;48.840;9.162;2022-11-09T06:05:09;10.30;99.90
35541;DHT22;21650;48.840;9.162;2022-11-09T06:07:34;10.30;99.90
35541;DHT22;21650;48.840;9.162;2022-11-09T06:10:00;10.30;99.90
35541;DHT22;21650;48.840;9.162;2022-11-09T06:12:26;10.40;99.90
35541;DHT22;21650;48.840;9.162;2022-11-09T06:14:51;10.30;99.90
35541;DHT22;21650;48.840;9.162;2022-11-09T06:17:17;10.40;99.90
35541;DHT22;21650;48.840;9.162;2022-11-09T06:19:43;10.40;99.90
35541;DHT22;21650;48.840;9.162;2022-11-09T06:22:08;10.40;99.90
35541;DHT22;21650;48.840;9.162;2022-11-09T06:24:34;10.30;99.90
35541;DHT22;21650;48.840;9.162;2022-11-09T06:27:00;10.40;99.90
35541;DHT22;21650;48.840;9.162;2022-11-09T06:29:25;10.40;99.90
35541;DHT22;21650;48.840;9.162;2022-11-09T06:31:51;10.40;99.90
35541;DHT22;21650;48.840;9.162;2022-11-09T06:34:16;10.40;99.90
35541;DHT22;21650;48.840;9.162;2022-11-09T06:36:42;10.40;99.90
35541;DHT22;21650;48.840;9.162;2022-11-09T06:39:08;10.40;99.90
35541;DHT22;21650;48.840;9.162;2022-11-09T06:41:34;10.40;99.90
35541;DHT22;21650;48.840;9.162;2022-11-09T06:44:00;10.40;99.90
35541;DHT22;21650;48.840;9.162;2022-11-09T06:46:26;10.40;99.90
35541;DHT22;21650;48.840;9.162;2022-11-09T06:48:52;10.40;99.90
35541;DHT22;21650;48.840;9.162;2022-11-09T06:51:18;10.40;99.90
35541;DHT22;21650;48.840;9.162;2022-11-09T06:53:43;10.40;99.90
35541;DHT22;21650;48.840;9.162;2022-11-09T06:56:09;10.50;99.90
35541;DHT22;21650;48.840;9.162;2022-11-09T06:58:35;10.50;99.90
35541;DHT22;21650;48.840;9.162;2022-11-09T07:01:12;10.60;99.90
35541;DHT22;21650;48.840;9.162;2022-11-09T07:03:38;10.60;99.90
35541;DHT22;21650;48.840;9.162;2022-11-09T07:06:08;10.60;99.90
35541;DHT22;21650;48.840;9.162;2022-11-09T07:08:35;10.70;99.90
35541;DHT22;21650;48.840;9.162;2022-11-09T07:11:05;10.70;99.90
35541;DHT22;21650;48.840;9.162;2022-11-09T07:13:31;10.70;99.90
35541;DHT22;21650;48.840;9.162;2022-11-09T07:15:56;10.80;99.90
35541;DHT22;21650;48.840;9.162;2022-11-09T07:18:22;10.80;99.90
35541;DHT22;21650;48.840;9.162;2022-11-09T07:20:48;10.70;99.90
35541;DHT22;21650;48.840;9.162;2022-11-09T07:23:13;10.70;99.90
35541;DHT22;21650;48.840;9.162;2022-11-09T07:25:39;10.70;99.90
35541;DHT22;21650;48.840;9.162;2022-11-09T07:28:06;10.70;99.90
35541;DHT22;21650;48.840;9.162;2022-11-09T07:30:33;10.80;99.90
35541;DHT22;21650;48.840;9.162;2022-11-09T07:32:59;10.80;99.90
35541;DHT22;21650;48.840;9.162;2022-11-09T07:35:28;10.80;99.90
35541;DHT22;21650;48.840;9.162;2022-11-09T07:37:58;10.90;99.90
35541;DHT22;21650;48.840;9.162;2022-11-09T07:40:24;10.90;99.90
35541;DHT22;21650;48.840;9.162;2022-11-09T07:42:49;10.90;99.90
35541;DHT22;21650;48.840;9.162;2022-11-09T07:45:15;11.00;99.90
35541;DHT22;21650;48.840;9.162;2022-11-09T07:47:40;11.10;99.90
35541;DHT22;21650;48.840;9.162;2022-11-09T07:50:06;11.10;99.90
35541;DHT22;21650;48.840;9.162;2022-11-09T07:52:32;11.10;99.90
35541;DHT22;21650;48.840;9.162;2022-11-09T07:54:57;11.10;99.90
35541;DHT22;21650;48.840;9.162;2022-11-09T07:57:23;11.10;99.90
35541;DHT22;21650;48.840;9.162;2022-11-09T07:59:48;11.10;99.90
35541;DHT22;21650;48.840;9.162;2022-11-09T08:02:16;11.20;99.90
35541;DHT22;21650;48.840;9.162;2022-11-09T08:04:41;11.10;99.90
35541;DHT22;21650;48.840;9.162;2022-11-09T08:07:07;11.20;99.90
35541;DHT22;21650;48.840;9.162;2022-11-09T08:09:33;11.20;99.90
35541;DHT22;21650;48.840;9.162;2022-11-09T08:11:58;11.30;99.90
35541;DHT22;21650;48.840;9.162;2022-11-09T08:14:24;11.30;99.90
35541;DHT22;21650;48.840;9.162;2022-11-09T08:16:49;11.40;99.90
35541;DHT22;21650;48.840;9.162;2022-11-09T08:19:15;11.40;99.90
35541;DHT22;21650;48.840;9.162;2022-11-09T08:21:40;11.40;99.90
35541;DHT22;21650;48.840;9.162;2022-11-09T08:24:06;11.40;99.90
35541;DHT22;21650;48.840;9.162;2022-11-09T08:26:32;11.40;99.90
35541;DHT22;21650;48.840;9.162;2022-11-09T08:28:57;11.40;99.90
35541;DHT22;21650;48.840;9.162;2022-11-09T08:31:23;11.40;99.90
35541;DHT22;21650;48.840;9.162;2022-11-09T08:33:48;11.40;99.90
35541;DHT22;21650;48.840;9.162;2022-11-09T08:36:16;11.40;99.90
35541;DHT22;21650;48.840;9.162;2022-11-09T08:38:43;11.40;99.90
35541;DHT22;21650;48.840;9.162;2022-11-09T08:41:09;11.40;99.90
35541;DHT22;21650;48.840;9.162;2022-11-09T08:43:35;11.50;99.90
35541;DHT22;21650;48.840;9.162;2022-11-09T08:46:01;11.50;99.90
35541;DHT22;21650;48.840;9.162;2022-11-09T08:48:26;11.50;99.90
35541;DHT22;21650;48.840;9.162;2022-11-09T08:50:57;11.60;99.90
35541;DHT22;21650;48.840;9.162;2022-11-09T08:53:25;11.60;99.90
35541;DHT22;21650;48.840;9.162;2022-11-09T08:55:51;11.60;99.90
35541;DHT22;21650;48.840;9.162;2022-11-09T08:58:17;11.70;99.90
35541;DHT22;21650;48.840;9.162;2022-11-09T09:00:43;11.70;99.90
35541;DHT22;21650;48.840;9.162;2022-11-09T09:03:09;11.80;99.90
35541;DHT22;21650;48.840;9.162;2022-11-09T09:05:35;11.80;99.90
35541;DHT22;21650;48.840;9.162;2022-11-09T09:08:02;11.90;99.90
35541;DHT22;21650;48.840;9.162;2022-11-09T09:10:28;11.90;99.90
35541;DHT22;21650;48.840;9.162;2022-11-09T09:12:54;11.90;99.90
35541;DHT22;21650;48.840;9.162;2022-11-09T09:15:20;11.90;99.90
35541;DHT22;21650;48.840;9.162;2022-11-09T09:17:46;11.90;99.90
35541;DHT22;21650;48.840;9.162;2022-11-09T09:20:12;11.90;99.90
35541;DHT22;21650;48.840;9.162;2022-11-09T09:22:38;11.90;99.90
35541;DHT22;21650;48.840;9.162;2022-11-09T09:25:04;12.00;99.90
35541;DHT22;21650;48.840;9.162;2022-11-09T09:27:30;12.00;99.90
35541;DHT22;21650;48.840;9.162;2022-11-09T09:29:56;12.00;99.90
35541;DHT22;21650;48.840;9.162;2022-11-09T09:32:22;12.10;99.90
35541;DHT22;21650;48.840;9.162;2022-11-09T09:34:47;12.10;99.90
35541;DHT22;21650;48.840;9.162;2022-11-09T09:37:13;12.10;99.90
35541;DHT22;21650;48.840;9.162;2022-11-09T09:39:40;12.10;99.90
35541;DHT22;21650;48.840;9.162;2022-11-09T09:42:36;12.20;99.90
35541;DHT22;21650;48.840;9.162;2022-11-09T09:45:08;12.20;99.90
35541;DHT22;21650;48.840;9.162;2022-11-09T09:47:51;12.30;99.90
35541;DHT22;21650;48.840;9.162;2022-11-09T09:50:21;12.30;99.90
35541;DHT22;21650;48.840;9.162;2022-11-09T09:53:03;12.50;99.90
35541;DHT22;21650;48.840;9.162;2022-11-09T09:55:38;12.50;99.90
35541;DHT22;21650;48.840;9.162;2022-11-09T09:58:12;12.70;99.90
35541;DHT22;21650;48.840;9.162;2022-11-09T10:00:41;12.70;99.90
35541;DHT22;21650;48.840;9.162;2022-11-09T10:03:15;12.80;99.90
35541;DHT22;21650;48.840;9.162;2022-11-09T10:14:31;13.00;99.90
35541;DHT22;21650;48.840;9.162;2022-11-09T10:25:20;13.10;99.90
35541;DHT22;21650;48.840;9.162;2022-11-09T10:27:59;13.20;99.90
35541;DHT22;21650;48.840;9.162;2022-11-09T10:30:27;13.30;99.90
35541;DHT22;21650;48.840;9.162;2022-11-09T10:33:02;13.40;99.90
35541;DHT22;21650;48.840;9.162;2022-11-09T10:35:39;13.30;99.90
35541;DHT22;21650;48.840;9.162;2022-11-09T10:38:14;13.40;99.90
35541;DHT22;21650;48.840;9.162;2022-11-09T10:40:41;13.50;99.90
35541;DHT22;21650;48.840;9.162;2022-11-09T10:43:11;13.50;99.90
35541;DHT22;21650;48.840;9.162;2022-11-09T10:45:39;13.50;99.90
35541;DHT22;21650;48.840;9.162;2022-11-09T10:48:07;13.60;99.90
35541;DHT22;21650;48.840;9.162;2022-11-09T10:50:46;13.60;99.90
35541;DHT22;21650;48.840;9.162;2022-11-09T10:56:15;13.80;99.90
35541;DHT22;21650;48.840;9.162;2022-11-09T10:58:49;13.80;99.90
35541;DHT22;21650;48.840;9.162;2022-11-09T11:01:19;13.90;99.90
35541;DHT22;21650;48.840;9.162;2022-11-09T11:03:49;13.90;99.90
35541;DHT22;21650;48.840;9.162;2022-11-09T11:06:17;14.00;99.90
35541;DHT22;21650;48.840;9.162;2022-11-09T11:09:13;14.00;99.90
35541;DHT22;21650;48.840;9.162;2022-11-09T11:11:40;14.10;99.90
35541;DHT22;21650;48.840;9.162;2022-11-09T11:16:36;14.00;99.90
35541;DHT22;21650;48.840;9.162;2022-11-09T11:19:03;13.90;99.90
35541;DHT22;21650;48.840;9.162;2022-11-09T11:21:29;14.00;99.90
35541;DHT22;21650;48.840;9.162;2022-11-09T11:24:17;14.10;99.90
35541;DHT22;21650;48.840;9.162;2022-11-09T11:27:18;14.00;99.90
35541;DHT22;21650;48.840;9.162;2022-11-09T11:32:15;14.10;99.90
35541;DHT22;21650;48.840;9.162;2022-11-09T11:34:42;14.10;99.90
35541;DHT22;21650;48.840;9.162;2022-11-09T11:40:00;14.10;99.90
35541;DHT22;21650;48.840;9.162;2022-11-09T11:42:35;14.10;99.90
35541;DHT22;21650;48.840;9.162;2022-11-09T11:59:01;14.20;99.90
35541;DHT22;21650;48.840;9.162;2022-11-09T12:02:08;14.30;99.90
35541;DHT22;21650;48.840;9.162;2022-11-09T12:07:50;14.40;99.90
35541;DHT22;21650;48.840;9.162;2022-11-09T12:10:49;14.50;99.90
35541;DHT22;21650;48.840;9.162;2022-11-09T12:13:33;14.50;99.90
35541;DHT22;21650;48.840;9.162;2022-11-09T12:16:17;14.50;99.90
35541;DHT22;21650;48.840;9.162;2022-11-09T12:19:03;14.50;99.90
35541;DHT22;21650;48.840;9.162;2022-11-09T12:21:46;14.50;99.90
35541;DHT22;21650;48.840;9.162;2022-11-09T12:24:35;14.50;99.90
35541;DHT22;21650;48.840;9.162;2022-11-09T12:30:15;14.40;99.90
35541;DHT22;21650;48.840;9.162;2022-11-09T12:33:07;14.40;99.90
35541;DHT22;21650;48.840;9.162;2022-11-09T12:40:54;14.40;99.90
35541;DHT22;21650;48.840;9.162;2022-11-09T12:46:10;14.50;99.90
35541;DHT22;21650;48.840;9.162;2022-11-09T12:48:37;14.50;99.90
35541;DHT22;21650;48.840;9.162;2022-11-09T12:51:04;14.50;99.90
35541;DHT22;21650;48.840;9.162;2022-11-09T12:53:33;14.50;99.90
35541;DHT22;21650;48.840;9.162;2022-11-09T12:56:01;14.50;99.90
35541;DHT22;21650;48.840;9.162;2022-11-09T12:58:30;14.50;99.90
35541;DHT22;21650;48.840;9.162;2022-11-09T13:00:58;14.50;99.90
35541;DHT22;21650;48.840;9.162;2022-11-09T13:03:30;14.50;99.90
35541;DHT22;21650;48.840;9.162;2022-11-09T13:08:40;14.50;99.90
35541;DHT22;21650;48.840;9.162;2022-11-09T13:11:20;14.50;99.90
35541;DHT22;21650;48.840;9.162;2022-11-09T13:13:46;14.60;99.90
35541;DHT22;21650;48.840;9.162;2022-11-09T13:23:51;14.70;99.90
35541;DHT22;21650;48.840;9.162;2022-11-09T13:29:09;14.60;99.90
35541;DHT22;21650;48.840;9.162;2022-11-09T13:34:51;14.60;99.90
35541;DHT22;21650;48.840;9.162;2022-11-09T13:43:00;14.60;99.90
35541;DHT22;21650;48.840;9.162;2022-11-09T13:48:45;14.60;99.90
35541;DHT22;21650;48.840;9.162;2022-11-09T13:51:18;14.60;99.90
35541;DHT22;21650;48.840;9.162;2022-11-09T13:56:30;14.50;99.90
35541;DHT22;21650;48.840;9.162;2022-11-09T13:59:24;14.50;99.90
35541;DHT22;21650;48.840;9.162;2022-11-09T14:01:58;14.50;99.90
35541;DHT22;21650;48.840;9.162;2022-11-09T14:04:38;14.50;99.90
35541;DHT22;21650;48.840;9.162;2022-11-09T14:07:16;14.50;99.90
35541;DHT22;21650;48.840;9.162;2022-11-09T14:10:00;14.50;99.90
35541;DHT22;21650;48.840;9.162;2022-11-09T14:12:33;14.50;99.90
35541;DHT22;21650;48.840;9.162;2022-11-09T14:20:55;14.40;99.90
35541;DHT22;21650;48.840;9.162;2022-11-09T14:23:26;14.40;99.90
35541;DHT22;21650;48.840;9.162;2022-11-09T14:25:52;14.30;99.90
35541;DHT22;21650;48.840;9.162;2022-11-09T14:28:27;14.30;99.90
35541;DHT22;21650;48.840;9.162;2022-11-09T14:30:54;14.30;99.90
35541;DHT22;21650;48.840;9.162;2022-11-09T14:33:25;14.30;99.90
35541;DHT22;21650;48.840;9.162;2022-11-09T14:35:53;14.30;99.90
35541;DHT22;21650;48.840;9.162;2022-11-09T14:38:34;14.20;99.90
35541;DHT22;21650;48.840;9.162;2022-11-09T14:41:00;14.30;99.90
35541;DHT22;21650;48.840;9.162;2022-11-09T14:43:34;14.20;99.90
35541;DHT22;21650;48.840;9.162;2022-11-09T14:46:03;14.10;99.90
35541;DHT22;21650;48.840;9.162;2022-11-09T14:48:30;14.10;99.90
35541;DHT22;21650;48.840;9.162;2022-11-09T14:51:01;14.10;99.90
35541;DHT22;21650;48.840;9.162;2022-11-09T14:53:39;14.00;99.90
35541;DHT22;21650;48.840;9.162;2022-11-09T14:56:09;14.00;99.90
35541;DHT22;21650;48.840;9.162;2022-11-09T14:58:39;14.00;99.90
35541;DHT22;21650;48.840;9.162;2022-11-09T15:04:13;13.90;99.90
35541;DHT22;21650;48.840;9.162;2022-11-09T15:06:49;13.80;99.90
35541;DHT22;21650;48.840;9.162;2022-11-09T15:09:43;13.80;99.90
35541;DHT22;21650;48.840;9.162;2022-11-09T15:12:13;13.80;99.90
35541;DHT22;21650;48.840;9.162;2022-11-09T15:14:39;13.70;99.90
35541;DHT22;21650;48.840;9.162;2022-11-09T15:19:58;13.60;99.90
35541;DHT22;21650;48.840;9.162;2022-11-09T15:22:39;13.70;99.90
35541;DHT22;21650;48.840;9.162;2022-11-09T15:30:42;13.60;99.90
35541;DHT22;21650;48.840;9.162;2022-11-09T15:38:41;13.50;99.90
35541;DHT22;21650;48.840;9.162;2022-11-09T15:41:16;13.50;99.90
35541;DHT22;21650;48.840;9.162;2022-11-09T15:43:43;13.50;99.90
35541;DHT22;21650;48.840;9.162;2022-11-09T15:46:12;13.50;99.90
35541;DHT22;21650;48.840;9.162;2022-11-09T15:48:38;13.40;99.90
35541;DHT22;21650;48.840;9.162;2022-11-09T15:51:04;13.30;99.90
35541;DHT22;21650;48.840;9.162;2022-11-09T15:53:29;13.30;99.90
35541;DHT22;21650;48.840;9.162;2022-11-09T15:55:57;13.30;99.90
35541;DHT22;21650;48.840;9.162;2022-11-09T15:58:23;13.20;99.90
35541;DHT22;21650;48.840;9.162;2022-11-09T16:00:48;13.20;99.90
35541;DHT22;21650;48.840;9.162;2022-11-09T16:03:14;13.20;99.90
35541;DHT22;21650;48.840;9.162;2022-11-09T16:05:44;13.20;99.90
35541;DHT22;21650;48.840;9.162;2022-11-09T16:08:10;13.20;99.90
35541;DHT22;21650;48.840;9.162;2022-11-09T16:10:37;13.20;99.90
35541;DHT22;21650;48.840;9.162;2022-11-09T16:13:05;13.10;99.90
35541;DHT22;21650;48.840;9.162;2022-11-09T16:15:32;13.10;99.90
35541;DHT22;21650;48.840;9.162;2022-11-09T16:17:58;13.10;99.90
35541;DHT22;21650;48.840;9.162;2022-11-09T16:20:24;13.10;99.90
35541;DHT22;21650;48.840;9.162;2022-11-09T16:22:50;13.10;99.90
35541;DHT22;21650;48.840;9.162;2022-11-09T16:25:16;13.00;99.90
35541;DHT22;21650;48.840;9.162;2022-11-09T16:27:42;13.00;99.90
35541;DHT22;21650;48.840;9.162;2022-11-09T16:30:08;13.00;99.90
35541;DHT22;21650;48.840;9.162;2022-11-09T16:32:35;12.90;99.90
35541;DHT22;21650;48.840;9.162;2022-11-09T16:35:01;12.90;99.90
35541;DHT22;21650;48.840;9.162;2022-11-09T16:37:29;12.90;99.90
35541;DHT22;21650;48.840;9.162;2022-11-09T16:39:57;12.90;99.90
35541;DHT22;21650;48.840;9.162;2022-11-09T16:42:25;12.80;99.90
35541;DHT22;21650;48.840;9.162;2022-11-09T16:44:51;12.80;99.90
35541;DHT22;21650;48.840;9.162;2022-11-09T16:47:18;12.80;99.90
35541;DHT22;21650;48.840;9.162;2022-11-09T16:49:44;12.80;99.90
35541;DHT22;21650;48.840;9.162;2022-11-09T16:52:10;12.80;99.90
35541;DHT22;21650;48.840;9.162;2022-11-09T16:54:35;12.80;99.90
35541;DHT22;21650;48.840;9.162;2022-11-09T16:57:01;12.80;99.90
35541;DHT22;21650;48.840;9.162;2022-11-09T16:59:27;12.80;99.90
35541;DHT22;21650;48.840;9.162;2022-11-09T17:01:56;12.80;99.90
35541;DHT22;21650;48.840;9.162;2022-11-09T17:04:22;12.80;99.90
35541;DHT22;21650;48.840;9.162;2022-11-09T17:06:49;12.80;99.90
35541;DHT22;21650;48.840;9.162;2022-11-09T17:09:15;12.90;99.90
35541;DHT22;21650;48.840;9.162;2022-11-09T17:11:40;12.90;99.90
35541;DHT22;21650;48.840;9.162;2022-11-09T17:14:06;12.90;99.90
35541;DHT22;21650;48.840;9.162;2022-11-09T17:16:32;12.90;99.90
35541;DHT22;21650;48.840;9.162;2022-11-09T17:18:58;13.00;99.90
35541;DHT22;21650;48.840;9.162;2022-11-09T17:21:25;12.90;99.90
35541;DHT22;21650;48.840;9.162;2022-11-09T17:23:52;12.90;99.90
35541;DHT22;21650;48.840;9.162;2022-11-09T17:26:20;12.90;99.90
35541;DHT22;21650;48.840;9.162;2022-11-09T17:28:46;12.90;99.90